Startpagina
METAR-TAF:

METAR-TAF

Vliegvelden :

Weno, Micronesië

breedte: 07-28N, lengte: 151-51E, hoogte: 3 m

Actueel weer

Dit bericht is 1 uur en het 8 minuten geleden gemaakt, om 08:56 UTC
Wind 5 kt uit variabele richting
Temperatuur 27°C
Vochtigheid 89%
Druk 1009 hPa
Zicht: 24.1 km
Weinig wolken op 1400 ft
Verspreide wolken op 12000 ft
Geheel bewolkt op 28000 ft

METAR: PTKK 190856Z VRB05KT 15SM FEW014 SCT120 OVC280 27/25 A2979 RMK SHRAE10 SLP089 60001 8/171 T02670247 52010

Tijdstip: 20:04 (10:04 UTC)

Verwachting

Dit bericht is 4 uur en het 44 minuten geleden gemaakt, om 05:20 UTC
Verwachting geldig van 19 om 06 UTC tot 20 om 06 UTC
Wind 12 kt uit het noordnoordoosten
Zicht: 10 km
Weinig wolken op 1800 ft
Verspreide wolken op 4000 ft
Verspreide wolken op 14000 ft
buien in de omgeving

TAF: PTKK 190520Z 1906/2006 03012KT P6SM VCSH FEW018 SCT040 SCT140

Waarnemingen en weersverwachtingen van meer dan 4000 vliegvelden (METAR en TAF).

De beschikbare stations zijn de gele en rode punten op de kaart.

Ga met uw muis naar het station om de naam te zien.

Klik dan om waarnemingen en weersverwachtingen te zien.

kaart wijzigen: klik op de groene knoppen met een zwart kruis om in te zoomen, op de groene knop met een streepje om uit te zoomen of op de groene pijlen voor aangrenzende kaarten.


METAR-TAF: